sensor_id;sensor_type;location;lat;lon;timestamp;temperature;humidity
13928;DHT22;7036;50.834;4.718;2024-03-25T00:01:30;19.20;57.50
13928;DHT22;7036;50.834;4.718;2024-03-25T00:03:57;19.20;56.90
13928;DHT22;7036;50.834;4.718;2024-03-25T00:06:25;19.20;56.90
13928;DHT22;7036;50.834;4.718;2024-03-25T00:08:52;19.20;56.90
13928;DHT22;7036;50.834;4.718;2024-03-25T00:11:22;19.20;57.60
13928;DHT22;7036;50.834;4.718;2024-03-25T00:13:48;19.10;56.90
13928;DHT22;7036;50.834;4.718;2024-03-25T00:16:16;19.20;57.50
13928;DHT22;7036;50.834;4.718;2024-03-25T00:18:44;19.10;57.50
13928;DHT22;7036;50.834;4.718;2024-03-25T00:21:12;19.10;57.60
13928;DHT22;7036;50.834;4.718;2024-03-25T00:23:40;19.10;56.90
13928;DHT22;7036;50.834;4.718;2024-03-25T00:26:07;19.10;56.90
13928;DHT22;7036;50.834;4.718;2024-03-25T00:28:34;19.10;56.90
13928;DHT22;7036;50.834;4.718;2024-03-25T00:31:02;19.10;57.60
13928;DHT22;7036;50.834;4.718;2024-03-25T00:33:31;19.00;57.60
13928;DHT22;7036;50.834;4.718;2024-03-25T00:35:58;19.00;56.90
13928;DHT22;7036;50.834;4.718;2024-03-25T00:38:25;19.00;57.00
13928;DHT22;7036;50.834;4.718;2024-03-25T00:40:53;19.00;57.60
13928;DHT22;7036;50.834;4.718;2024-03-25T00:43:21;19.00;57.60
13928;DHT22;7036;50.834;4.718;2024-03-25T00:45:49;19.00;57.60
13928;DHT22;7036;50.834;4.718;2024-03-25T00:48:16;19.00;57.00
13928;DHT22;7036;50.834;4.718;2024-03-25T00:50:44;19.00;57.00
13928;DHT22;7036;50.834;4.718;2024-03-25T00:53:12;18.90;57.50
13928;DHT22;7036;50.834;4.718;2024-03-25T00:55:40;18.90;57.60
13928;DHT22;7036;50.834;4.718;2024-03-25T00:58:08;18.90;57.60
13928;DHT22;7036;50.834;4.718;2024-03-25T01:00:37;18.90;57.70
13928;DHT22;7036;50.834;4.718;2024-03-25T01:03:05;18.80;56.90
13928;DHT22;7036;50.834;4.718;2024-03-25T01:05:31;18.90;57.00
13928;DHT22;7036;50.834;4.718;2024-03-25T01:07:59;18.80;57.60
13928;DHT22;7036;50.834;4.718;2024-03-25T01:10:26;18.80;57.00
13928;DHT22;7036;50.834;4.718;2024-03-25T01:12:55;18.80;57.60
13928;DHT22;7036;50.834;4.718;2024-03-25T01:15:23;18.80;57.60
13928;DHT22;7036;50.834;4.718;2024-03-25T01:17:51;18.80;57.60
13928;DHT22;7036;50.834;4.718;2024-03-25T01:20:18;18.80;57.60
13928;DHT22;7036;50.834;4.718;2024-03-25T01:22:45;18.80;57.00
13928;DHT22;7036;50.834;4.718;2024-03-25T01:25:12;18.80;56.90
13928;DHT22;7036;50.834;4.718;2024-03-25T01:27:40;18.80;57.70
13928;DHT22;7036;50.834;4.718;2024-03-25T01:30:08;18.80;57.00
13928;DHT22;7036;50.834;4.718;2024-03-25T01:32:35;18.80;56.90
13928;DHT22;7036;50.834;4.718;2024-03-25T01:35:03;18.70;57.60
13928;DHT22;7036;50.834;4.718;2024-03-25T01:37:31;18.70;57.50
13928;DHT22;7036;50.834;4.718;2024-03-25T01:39:57;18.70;56.90
13928;DHT22;7036;50.834;4.718;2024-03-25T01:42:25;18.70;57.50
13928;DHT22;7036;50.834;4.718;2024-03-25T01:44:53;18.70;57.50
13928;DHT22;7036;50.834;4.718;2024-03-25T01:47:21;18.70;57.50
13928;DHT22;7036;50.834;4.718;2024-03-25T01:49:49;18.70;56.90
13928;DHT22;7036;50.834;4.718;2024-03-25T01:52:16;18.70;57.50
13928;DHT22;7036;50.834;4.718;2024-03-25T01:54:44;18.70;56.90
13928;DHT22;7036;50.834;4.718;2024-03-25T01:57:12;18.70;57.50
13928;DHT22;7036;50.834;4.718;2024-03-25T01:59:40;18.60;57.50
13928;DHT22;7036;50.834;4.718;2024-03-25T02:02:08;18.60;57.50
13928;DHT22;7036;50.834;4.718;2024-03-25T02:04:35;18.60;56.80
13928;DHT22;7036;50.834;4.718;2024-03-25T02:07:03;18.60;57.50
13928;DHT22;7036;50.834;4.718;2024-03-25T02:09:30;18.60;56.90
13928;DHT22;7036;50.834;4.718;2024-03-25T02:11:58;18.60;57.50
13928;DHT22;7036;50.834;4.718;2024-03-25T02:14:26;18.60;57.40
13928;DHT22;7036;50.834;4.718;2024-03-25T02:16:54;18.60;57.50
13928;DHT22;7036;50.834;4.718;2024-03-25T02:19:22;18.60;57.50
13928;DHT22;7036;50.834;4.718;2024-03-25T02:21:50;18.60;57.50
13928;DHT22;7036;50.834;4.718;2024-03-25T02:24:17;18.60;56.80
13928;DHT22;7036;50.834;4.718;2024-03-25T02:26:45;18.60;57.40
13928;DHT22;7036;50.834;4.718;2024-03-25T02:29:13;18.60;57.40
13928;DHT22;7036;50.834;4.718;2024-03-25T02:31:41;18.60;56.80
13928;DHT22;7036;50.834;4.718;2024-03-25T02:34:08;18.60;56.60
13928;DHT22;7036;50.834;4.718;2024-03-25T02:36:36;18.60;57.30
13928;DHT22;7036;50.834;4.718;2024-03-25T02:39:03;18.60;56.70
13928;DHT22;7036;50.834;4.718;2024-03-25T02:41:31;18.60;57.30
13928;DHT22;7036;50.834;4.718;2024-03-25T02:43:59;18.60;57.00
13928;DHT22;7036;50.834;4.718;2024-03-25T02:46:27;18.60;57.30
13928;DHT22;7036;50.834;4.718;2024-03-25T02:48:55;18.60;57.30
13928;DHT22;7036;50.834;4.718;2024-03-25T02:51:23;18.60;57.30
13928;DHT22;7036;50.834;4.718;2024-03-25T02:53:51;18.60;57.30
13928;DHT22;7036;50.834;4.718;2024-03-25T02:56:19;18.60;57.30
13928;DHT22;7036;50.834;4.718;2024-03-25T02:58:47;18.60;57.30
13928;DHT22;7036;50.834;4.718;2024-03-25T03:01:15;18.60;57.30
13928;DHT22;7036;50.834;4.718;2024-03-25T03:03:43;18.60;57.30
13928;DHT22;7036;50.834;4.718;2024-03-25T03:06:12;18.60;57.30
13928;DHT22;7036;50.834;4.718;2024-03-25T03:08:39;18.60;56.60
13928;DHT22;7036;50.834;4.718;2024-03-25T03:11:07;18.60;57.20
13928;DHT22;7036;50.834;4.718;2024-03-25T03:13:34;18.60;56.50
13928;DHT22;7036;50.834;4.718;2024-03-25T03:16:02;18.60;57.20
13928;DHT22;7036;50.834;4.718;2024-03-25T03:18:30;18.60;57.10
13928;DHT22;7036;50.834;4.718;2024-03-25T03:20:58;18.60;57.10
13928;DHT22;7036;50.834;4.718;2024-03-25T03:23:26;18.60;57.10
13928;DHT22;7036;50.834;4.718;2024-03-25T03:25:54;18.60;57.00
13928;DHT22;7036;50.834;4.718;2024-03-25T03:28:22;18.60;57.10
13928;DHT22;7036;50.834;4.718;2024-03-25T03:30:50;18.60;57.00
13928;DHT22;7036;50.834;4.718;2024-03-25T03:33:17;18.60;56.40
13928;DHT22;7036;50.834;4.718;2024-03-25T03:35:44;18.60;56.40
13928;DHT22;7036;50.834;4.718;2024-03-25T03:38:12;18.60;56.50
13928;DHT22;7036;50.834;4.718;2024-03-25T03:40:40;18.60;57.00
13928;DHT22;7036;50.834;4.718;2024-03-25T03:43:11;18.60;57.10
13928;DHT22;7036;50.834;4.718;2024-03-25T03:45:37;18.60;56.50
13928;DHT22;7036;50.834;4.718;2024-03-25T03:48:06;18.60;57.10
13928;DHT22;7036;50.834;4.718;2024-03-25T03:50:32;18.60;56.40
13928;DHT22;7036;50.834;4.718;2024-03-25T03:53:00;18.60;56.50
13928;DHT22;7036;50.834;4.718;2024-03-25T03:55:27;18.60;56.50
13928;DHT22;7036;50.834;4.718;2024-03-25T03:57:55;18.60;57.10
13928;DHT22;7036;50.834;4.718;2024-03-25T04:00:23;18.60;57.10
13928;DHT22;7036;50.834;4.718;2024-03-25T04:02:52;18.60;57.10
13928;DHT22;7036;50.834;4.718;2024-03-25T04:05:19;18.60;56.50
13928;DHT22;7036;50.834;4.718;2024-03-25T04:07:46;18.60;57.10
13928;DHT22;7036;50.834;4.718;2024-03-25T04:10:14;18.60;57.10
13928;DHT22;7036;50.834;4.718;2024-03-25T04:12:42;18.60;57.20
13928;DHT22;7036;50.834;4.718;2024-03-25T04:15:10;18.60;57.10
13928;DHT22;7036;50.834;4.718;2024-03-25T04:17:38;18.60;57.10
13928;DHT22;7036;50.834;4.718;2024-03-25T04:20:06;18.60;57.10
13928;DHT22;7036;50.834;4.718;2024-03-25T04:22:34;18.60;57.00
13928;DHT22;7036;50.834;4.718;2024-03-25T04:25:00;18.60;56.50
13928;DHT22;7036;50.834;4.718;2024-03-25T04:27:28;18.60;57.10
13928;DHT22;7036;50.834;4.718;2024-03-25T04:29:56;18.60;57.10
13928;DHT22;7036;50.834;4.718;2024-03-25T04:32:24;18.60;57.10
13928;DHT22;7036;50.834;4.718;2024-03-25T04:34:52;18.60;57.10
13928;DHT22;7036;50.834;4.718;2024-03-25T04:37:20;18.60;56.50
13928;DHT22;7036;50.834;4.718;2024-03-25T04:39:48;18.60;57.10
13928;DHT22;7036;50.834;4.718;2024-03-25T04:42:16;18.60;57.00
13928;DHT22;7036;50.834;4.718;2024-03-25T04:44:44;18.60;57.00
13928;DHT22;7036;50.834;4.718;2024-03-25T04:47:12;18.60;57.00
13928;DHT22;7036;50.834;4.718;2024-03-25T04:49:39;18.60;56.40
13928;DHT22;7036;50.834;4.718;2024-03-25T04:52:07;18.60;57.00
13928;DHT22;7036;50.834;4.718;2024-03-25T04:54:34;18.60;56.40
13928;DHT22;7036;50.834;4.718;2024-03-25T04:57:02;18.60;57.00
13928;DHT22;7036;50.834;4.718;2024-03-25T04:59:30;18.50;57.00
13928;DHT22;7036;50.834;4.718;2024-03-25T05:01:58;18.50;57.00
13928;DHT22;7036;50.834;4.718;2024-03-25T05:04:26;18.50;57.00
13928;DHT22;7036;50.834;4.718;2024-03-25T05:06:54;18.50;57.00
13928;DHT22;7036;50.834;4.718;2024-03-25T05:09:22;18.50;57.00
13928;DHT22;7036;50.834;4.718;2024-03-25T05:11:50;18.50;57.00
13928;DHT22;7036;50.834;4.718;2024-03-25T05:14:18;18.50;57.00
13928;DHT22;7036;50.834;4.718;2024-03-25T05:16:45;18.50;56.50
13928;DHT22;7036;50.834;4.718;2024-03-25T05:19:13;18.50;57.00
13928;DHT22;7036;50.834;4.718;2024-03-25T05:21:41;18.50;57.00
13928;DHT22;7036;50.834;4.718;2024-03-25T05:24:09;18.50;57.00
13928;DHT22;7036;50.834;4.718;2024-03-25T05:26:37;18.50;57.00
13928;DHT22;7036;50.834;4.718;2024-03-25T05:29:04;18.50;56.40
13928;DHT22;7036;50.834;4.718;2024-03-25T05:31:32;18.60;57.00
13928;DHT22;7036;50.834;4.718;2024-03-25T05:34:00;18.60;57.00
13928;DHT22;7036;50.834;4.718;2024-03-25T05:36:28;18.60;57.00
13928;DHT22;7036;50.834;4.718;2024-03-25T05:38:55;18.60;56.40
13928;DHT22;7036;50.834;4.718;2024-03-25T05:41:23;18.60;56.90
13928;DHT22;7036;50.834;4.718;2024-03-25T05:43:50;18.60;56.30
13928;DHT22;7036;50.834;4.718;2024-03-25T05:46:18;18.60;56.90
13928;DHT22;7036;50.834;4.718;2024-03-25T05:48:46;18.60;56.90
13928;DHT22;7036;50.834;4.718;2024-03-25T05:51:14;18.60;56.90
13928;DHT22;7036;50.834;4.718;2024-03-25T05:53:42;18.60;56.80
13928;DHT22;7036;50.834;4.718;2024-03-25T05:56:10;18.60;56.80
13928;DHT22;7036;50.834;4.718;2024-03-25T05:58:38;18.60;56.80
13928;DHT22;7036;50.834;4.718;2024-03-25T06:01:06;18.60;56.80
13928;DHT22;7036;50.834;4.718;2024-03-25T06:03:33;18.60;56.20
13928;DHT22;7036;50.834;4.718;2024-03-25T06:06:01;18.60;56.80
13928;DHT22;7036;50.834;4.718;2024-03-25T06:08:29;18.60;56.80
13928;DHT22;7036;50.834;4.718;2024-03-25T06:11:00;18.60;56.80
13928;DHT22;7036;50.834;4.718;2024-03-25T06:13:27;18.60;56.20
13928;DHT22;7036;50.834;4.718;2024-03-25T06:15:54;18.70;56.10
13928;DHT22;7036;50.834;4.718;2024-03-25T06:18:22;18.80;56.70
13928;DHT22;7036;50.834;4.718;2024-03-25T06:20:49;18.80;56.20
13928;DHT22;7036;50.834;4.718;2024-03-25T06:23:23;18.90;56.80
13928;DHT22;7036;50.834;4.718;2024-03-25T06:25:50;18.90;56.20
13928;DHT22;7036;50.834;4.718;2024-03-25T06:28:18;19.00;56.80
13928;DHT22;7036;50.834;4.718;2024-03-25T06:30:46;19.10;56.70
13928;DHT22;7036;50.834;4.718;2024-03-25T06:33:31;19.00;56.00
13928;DHT22;7036;50.834;4.718;2024-03-25T06:36:16;19.10;55.90
13928;DHT22;7036;50.834;4.718;2024-03-25T06:38:44;19.20;56.30
13928;DHT22;7036;50.834;4.718;2024-03-25T06:41:11;19.20;55.70
13928;DHT22;7036;50.834;4.718;2024-03-25T06:43:38;19.30;55.60
13928;DHT22;7036;50.834;4.718;2024-03-25T06:46:06;19.40;56.30
13928;DHT22;7036;50.834;4.718;2024-03-25T06:48:34;19.40;56.40
13928;DHT22;7036;50.834;4.718;2024-03-25T06:51:02;19.40;56.60
13928;DHT22;7036;50.834;4.718;2024-03-25T06:53:29;19.40;55.90
13928;DHT22;7036;50.834;4.718;2024-03-25T06:56:00;19.50;56.80
13928;DHT22;7036;50.834;4.718;2024-03-25T06:58:25;19.50;56.20
13928;DHT22;7036;50.834;4.718;2024-03-25T07:00:52;19.50;56.00
13928;DHT22;7036;50.834;4.718;2024-03-25T07:03:20;19.60;56.10
13928;DHT22;7036;50.834;4.718;2024-03-25T07:05:50;19.60;56.10
13928;DHT22;7036;50.834;4.718;2024-03-25T07:08:15;19.60;56.60
13928;DHT22;7036;50.834;4.718;2024-03-25T07:10:42;19.60;56.00
13928;DHT22;7036;50.834;4.718;2024-03-25T07:13:09;19.70;56.00
13928;DHT22;7036;50.834;4.718;2024-03-25T07:15:38;19.70;56.50
13928;DHT22;7036;50.834;4.718;2024-03-25T07:18:05;19.70;56.00
13928;DHT22;7036;50.834;4.718;2024-03-25T07:20:32;19.70;55.90
13928;DHT22;7036;50.834;4.718;2024-03-25T07:22:59;19.70;56.00
13928;DHT22;7036;50.834;4.718;2024-03-25T07:25:26;19.80;55.90
13928;DHT22;7036;50.834;4.718;2024-03-25T07:27:54;19.80;55.80
13928;DHT22;7036;50.834;4.718;2024-03-25T07:30:22;19.80;56.40
13928;DHT22;7036;50.834;4.718;2024-03-25T07:32:50;19.80;56.30
13928;DHT22;7036;50.834;4.718;2024-03-25T07:35:18;19.80;56.20
13928;DHT22;7036;50.834;4.718;2024-03-25T07:37:46;19.90;56.20
13928;DHT22;7036;50.834;4.718;2024-03-25T07:40:14;19.90;56.30
13928;DHT22;7036;50.834;4.718;2024-03-25T07:42:41;19.90;55.70
13928;DHT22;7036;50.834;4.718;2024-03-25T07:45:09;19.90;56.30
13928;DHT22;7036;50.834;4.718;2024-03-25T07:47:37;19.90;56.30
13928;DHT22;7036;50.834;4.718;2024-03-25T07:50:04;19.90;55.70
13928;DHT22;7036;50.834;4.718;2024-03-25T07:52:31;19.90;55.60
13928;DHT22;7036;50.834;4.718;2024-03-25T07:54:59;19.90;56.20
13928;DHT22;7036;50.834;4.718;2024-03-25T07:57:26;19.90;55.60
13928;DHT22;7036;50.834;4.718;2024-03-25T07:59:54;19.90;55.70
13928;DHT22;7036;50.834;4.718;2024-03-25T08:02:22;19.90;56.30
13928;DHT22;7036;50.834;4.718;2024-03-25T08:04:50;19.90;56.20
13928;DHT22;7036;50.834;4.718;2024-03-25T08:07:17;19.90;56.20
13928;DHT22;7036;50.834;4.718;2024-03-25T08:09:45;19.90;56.30
13928;DHT22;7036;50.834;4.718;2024-03-25T08:12:13;19.80;55.60
13928;DHT22;7036;50.834;4.718;2024-03-25T08:14:40;19.80;55.60
13928;DHT22;7036;50.834;4.718;2024-03-25T08:17:08;19.80;56.10
13928;DHT22;7036;50.834;4.718;2024-03-25T08:19:36;19.80;56.10
13928;DHT22;7036;50.834;4.718;2024-03-25T08:22:03;19.80;56.20
13928;DHT22;7036;50.834;4.718;2024-03-25T08:24:30;19.80;55.60
13928;DHT22;7036;50.834;4.718;2024-03-25T08:26:58;19.80;56.40
13928;DHT22;7036;50.834;4.718;2024-03-25T08:29:25;19.80;55.70
13928;DHT22;7036;50.834;4.718;2024-03-25T08:31:53;19.80;55.60
13928;DHT22;7036;50.834;4.718;2024-03-25T08:34:21;19.80;56.30
13928;DHT22;7036;50.834;4.718;2024-03-25T08:36:48;19.80;55.70
13928;DHT22;7036;50.834;4.718;2024-03-25T08:39:15;19.80;55.60
13928;DHT22;7036;50.834;4.718;2024-03-25T08:41:43;19.80;56.40
13928;DHT22;7036;50.834;4.718;2024-03-25T08:44:10;19.80;55.70
13928;DHT22;7036;50.834;4.718;2024-03-25T08:46:38;19.80;56.40
13928;DHT22;7036;50.834;4.718;2024-03-25T08:49:06;19.80;56.40
13928;DHT22;7036;50.834;4.718;2024-03-25T08:51:36;19.80;56.40
13928;DHT22;7036;50.834;4.718;2024-03-25T08:54:03;19.80;55.80
13928;DHT22;7036;50.834;4.718;2024-03-25T08:56:31;19.80;56.60
13928;DHT22;7036;50.834;4.718;2024-03-25T08:58:58;19.80;55.90
13928;DHT22;7036;50.834;4.718;2024-03-25T09:01:25;19.80;55.90
13928;DHT22;7036;50.834;4.718;2024-03-25T09:03:53;19.80;56.70
13928;DHT22;7036;50.834;4.718;2024-03-25T09:06:21;19.80;56.70
13928;DHT22;7036;50.834;4.718;2024-03-25T09:08:49;19.80;56.70
13928;DHT22;7036;50.834;4.718;2024-03-25T09:11:34;19.80;56.10
13928;DHT22;7036;50.834;4.718;2024-03-25T09:14:01;19.80;56.10
13928;DHT22;7036;50.834;4.718;2024-03-25T09:16:29;19.80;56.10
13928;DHT22;7036;50.834;4.718;2024-03-25T09:18:56;19.80;56.80
13928;DHT22;7036;50.834;4.718;2024-03-25T09:21:24;19.80;56.90
13928;DHT22;7036;50.834;4.718;2024-03-25T09:23:52;19.80;56.20
13928;DHT22;7036;50.834;4.718;2024-03-25T09:26:19;19.80;56.30
13928;DHT22;7036;50.834;4.718;2024-03-25T09:28:46;19.80;56.30
13928;DHT22;7036;50.834;4.718;2024-03-25T09:31:14;19.80;57.10
13928;DHT22;7036;50.834;4.718;2024-03-25T09:33:42;19.80;57.10
13928;DHT22;7036;50.834;4.718;2024-03-25T09:36:09;19.80;56.40
13928;DHT22;7036;50.834;4.718;2024-03-25T09:38:36;19.90;56.50
13928;DHT22;7036;50.834;4.718;2024-03-25T09:41:03;19.80;56.50
13928;DHT22;7036;50.834;4.718;2024-03-25T09:43:44;19.80;57.20
13928;DHT22;7036;50.834;4.718;2024-03-25T09:46:11;19.80;56.60
13928;DHT22;7036;50.834;4.718;2024-03-25T09:48:38;19.80;56.60
13928;DHT22;7036;50.834;4.718;2024-03-25T09:51:06;19.80;57.20
13928;DHT22;7036;50.834;4.718;2024-03-25T09:53:33;19.80;56.60
13928;DHT22;7036;50.834;4.718;2024-03-25T09:56:01;19.80;57.20
13928;DHT22;7036;50.834;4.718;2024-03-25T09:58:29;19.80;56.50
13928;DHT22;7036;50.834;4.718;2024-03-25T10:00:57;19.80;57.10
13928;DHT22;7036;50.834;4.718;2024-03-25T10:03:25;19.80;57.00
13928;DHT22;7036;50.834;4.718;2024-03-25T10:05:52;19.80;56.40
13928;DHT22;7036;50.834;4.718;2024-03-25T10:08:23;19.80;57.00
13928;DHT22;7036;50.834;4.718;2024-03-25T10:10:50;19.80;56.30
13928;DHT22;7036;50.834;4.718;2024-03-25T10:13:18;19.80;57.00
13928;DHT22;7036;50.834;4.718;2024-03-25T10:15:49;19.80;57.00
13928;DHT22;7036;50.834;4.718;2024-03-25T10:18:14;19.80;56.90
13928;DHT22;7036;50.834;4.718;2024-03-25T10:20:51;19.80;57.00
13928;DHT22;7036;50.834;4.718;2024-03-25T10:23:22;19.80;56.30
13928;DHT22;7036;50.834;4.718;2024-03-25T10:25:48;19.80;56.30
13928;DHT22;7036;50.834;4.718;2024-03-25T10:28:16;19.80;57.00
13928;DHT22;7036;50.834;4.718;2024-03-25T10:30:44;19.80;57.00
13928;DHT22;7036;50.834;4.718;2024-03-25T10:33:12;19.80;57.10
13928;DHT22;7036;50.834;4.718;2024-03-25T10:35:40;19.80;56.40
13928;DHT22;7036;50.834;4.718;2024-03-25T10:38:08;19.80;57.30
13928;DHT22;7036;50.834;4.718;2024-03-25T10:40:36;19.80;57.40
13928;DHT22;7036;50.834;4.718;2024-03-25T10:43:10;19.90;57.50
13928;DHT22;7036;50.834;4.718;2024-03-25T10:45:42;19.80;56.80
13928;DHT22;7036;50.834;4.718;2024-03-25T10:48:48;19.90;57.00
13928;DHT22;7036;50.834;4.718;2024-03-25T10:50:35;19.90;57.00
13928;DHT22;7036;50.834;4.718;2024-03-25T10:53:02;19.90;56.90
13928;DHT22;7036;50.834;4.718;2024-03-25T10:55:30;19.90;57.60
13928;DHT22;7036;50.834;4.718;2024-03-25T10:57:57;19.80;56.90
13928;DHT22;7036;50.834;4.718;2024-03-25T11:00:25;19.80;56.60
13928;DHT22;7036;50.834;4.718;2024-03-25T11:02:52;19.80;55.90
13928;DHT22;7036;50.834;4.718;2024-03-25T11:05:20;19.80;55.20
13928;DHT22;7036;50.834;4.718;2024-03-25T11:07:47;19.80;54.50
13928;DHT22;7036;50.834;4.718;2024-03-25T11:10:15;19.80;55.60
13928;DHT22;7036;50.834;4.718;2024-03-25T11:12:43;19.80;55.50
13928;DHT22;7036;50.834;4.718;2024-03-25T11:15:11;19.80;55.50
13928;DHT22;7036;50.834;4.718;2024-03-25T11:17:49;19.80;55.50
13928;DHT22;7036;50.834;4.718;2024-03-25T11:20:14;19.80;55.50
13928;DHT22;7036;50.834;4.718;2024-03-25T11:22:50;19.80;55.50
13928;DHT22;7036;50.834;4.718;2024-03-25T11:25:17;19.80;54.80
13928;DHT22;7036;50.834;4.718;2024-03-25T11:27:44;19.90;54.90
13928;DHT22;7036;50.834;4.718;2024-03-25T11:30:12;19.90;55.60
13928;DHT22;7036;50.834;4.718;2024-03-25T11:32:52;19.90;55.60
13928;DHT22;7036;50.834;4.718;2024-03-25T11:35:18;19.90;55.00
13928;DHT22;7036;50.834;4.718;2024-03-25T11:37:46;19.90;55.80
13928;DHT22;7036;50.834;4.718;2024-03-25T11:40:14;19.90;55.90
13928;DHT22;7036;50.834;4.718;2024-03-25T11:42:42;19.90;56.00
13928;DHT22;7036;50.834;4.718;2024-03-25T11:45:16;19.90;56.00
13928;DHT22;7036;50.834;4.718;2024-03-25T11:47:43;19.90;55.60
13928;DHT22;7036;50.834;4.718;2024-03-25T11:50:13;19.90;55.30
13928;DHT22;7036;50.834;4.718;2024-03-25T11:52:38;19.90;55.70
13928;DHT22;7036;50.834;4.718;2024-03-25T11:55:06;19.90;54.80
13928;DHT22;7036;50.834;4.718;2024-03-25T11:57:34;19.90;55.00
13928;DHT22;7036;50.834;4.718;2024-03-25T12:00:00;19.90;54.40
13928;DHT22;7036;50.834;4.718;2024-03-25T12:02:28;19.90;54.90
13928;DHT22;7036;50.834;4.718;2024-03-25T12:04:55;19.90;54.20
13928;DHT22;7036;50.834;4.718;2024-03-25T12:07:23;19.90;54.90
13928;DHT22;7036;50.834;4.718;2024-03-25T12:09:51;19.90;54.90
13928;DHT22;7036;50.834;4.718;2024-03-25T12:12:36;19.90;54.30
13928;DHT22;7036;50.834;4.718;2024-03-25T12:15:04;19.90;55.00
13928;DHT22;7036;50.834;4.718;2024-03-25T12:17:32;19.90;55.00
13928;DHT22;7036;50.834;4.718;2024-03-25T12:20:04;19.90;54.40
13928;DHT22;7036;50.834;4.718;2024-03-25T12:22:34;19.90;54.40
13928;DHT22;7036;50.834;4.718;2024-03-25T12:25:01;19.90;54.40
13928;DHT22;7036;50.834;4.718;2024-03-25T12:27:27;19.90;54.50
13928;DHT22;7036;50.834;4.718;2024-03-25T12:30:03;19.90;54.60
13928;DHT22;7036;50.834;4.718;2024-03-25T12:32:40;19.80;54.50
13928;DHT22;7036;50.834;4.718;2024-03-25T12:35:09;19.90;54.60
13928;DHT22;7036;50.834;4.718;2024-03-25T12:37:33;19.90;54.60
13928;DHT22;7036;50.834;4.718;2024-03-25T12:40:01;19.80;55.30
13928;DHT22;7036;50.834;4.718;2024-03-25T12:42:29;19.80;55.20
13928;DHT22;7036;50.834;4.718;2024-03-25T12:44:57;19.80;54.60
13928;DHT22;7036;50.834;4.718;2024-03-25T12:47:25;19.80;55.50
13928;DHT22;7036;50.834;4.718;2024-03-25T12:49:52;19.80;54.80
13928;DHT22;7036;50.834;4.718;2024-03-25T12:52:20;19.80;55.80
13928;DHT22;7036;50.834;4.718;2024-03-25T12:54:48;19.80;55.80
13928;DHT22;7036;50.834;4.718;2024-03-25T12:57:16;19.80;55.80
13928;DHT22;7036;50.834;4.718;2024-03-25T12:59:44;19.80;55.80
13928;DHT22;7036;50.834;4.718;2024-03-25T13:02:12;19.80;55.50
13928;DHT22;7036;50.834;4.718;2024-03-25T13:04:39;19.70;54.80
13928;DHT22;7036;50.834;4.718;2024-03-25T13:07:07;19.80;55.70
13928;DHT22;7036;50.834;4.718;2024-03-25T13:09:35;19.80;56.90
13928;DHT22;7036;50.834;4.718;2024-03-25T13:12:03;19.80;57.20
13928;DHT22;7036;50.834;4.718;2024-03-25T13:14:31;19.80;57.30
13928;DHT22;7036;50.834;4.718;2024-03-25T13:16:59;19.80;57.30
13928;DHT22;7036;50.834;4.718;2024-03-25T13:19:27;19.80;57.40
13928;DHT22;7036;50.834;4.718;2024-03-25T13:21:58;19.80;57.40
13928;DHT22;7036;50.834;4.718;2024-03-25T13:24:25;19.80;56.70
13928;DHT22;7036;50.834;4.718;2024-03-25T13:26:53;19.80;57.30
13928;DHT22;7036;50.834;4.718;2024-03-25T13:29:21;19.80;57.30
13928;DHT22;7036;50.834;4.718;2024-03-25T13:31:48;19.80;56.70
13928;DHT22;7036;50.834;4.718;2024-03-25T13:34:15;19.80;56.50
13928;DHT22;7036;50.834;4.718;2024-03-25T13:36:42;19.80;56.50
13928;DHT22;7036;50.834;4.718;2024-03-25T13:39:10;19.80;57.10
13928;DHT22;7036;50.834;4.718;2024-03-25T13:41:39;19.70;56.90
13928;DHT22;7036;50.834;4.718;2024-03-25T13:44:06;19.70;56.30
13928;DHT22;7036;50.834;4.718;2024-03-25T13:46:34;19.70;56.90
13928;DHT22;7036;50.834;4.718;2024-03-25T13:49:02;19.70;56.80
13928;DHT22;7036;50.834;4.718;2024-03-25T13:51:30;19.70;56.80
13928;DHT22;7036;50.834;4.718;2024-03-25T13:53:58;19.70;56.80
13928;DHT22;7036;50.834;4.718;2024-03-25T13:56:25;19.70;56.10
13928;DHT22;7036;50.834;4.718;2024-03-25T13:58:53;19.70;56.80
13928;DHT22;7036;50.834;4.718;2024-03-25T14:01:21;19.70;56.70
13928;DHT22;7036;50.834;4.718;2024-03-25T14:03:49;19.70;56.70
13928;DHT22;7036;50.834;4.718;2024-03-25T14:06:16;19.70;56.10
13928;DHT22;7036;50.834;4.718;2024-03-25T14:08:44;19.70;56.90
13928;DHT22;7036;50.834;4.718;2024-03-25T14:11:12;19.70;57.00
13928;DHT22;7036;50.834;4.718;2024-03-25T14:13:40;19.70;57.00
13928;DHT22;7036;50.834;4.718;2024-03-25T14:16:08;19.80;57.10
13928;DHT22;7036;50.834;4.718;2024-03-25T14:18:36;19.70;57.10
13928;DHT22;7036;50.834;4.718;2024-03-25T14:21:04;19.70;57.10
13928;DHT22;7036;50.834;4.718;2024-03-25T14:23:31;19.70;56.50
13928;DHT22;7036;50.834;4.718;2024-03-25T14:25:58;19.70;55.80
13928;DHT22;7036;50.834;4.718;2024-03-25T14:28:26;19.70;57.10
13928;DHT22;7036;50.834;4.718;2024-03-25T14:30:54;19.70;57.20
13928;DHT22;7036;50.834;4.718;2024-03-25T14:33:22;19.70;57.10
13928;DHT22;7036;50.834;4.718;2024-03-25T14:35:49;19.70;56.40
13928;DHT22;7036;50.834;4.718;2024-03-25T14:38:17;19.70;56.70
13928;DHT22;7036;50.834;4.718;2024-03-25T14:40:46;19.70;56.10
13928;DHT22;7036;50.834;4.718;2024-03-25T14:43:12;19.70;56.60
13928;DHT22;7036;50.834;4.718;2024-03-25T14:45:40;19.70;56.60
13928;DHT22;7036;50.834;4.718;2024-03-25T14:48:08;19.70;56.60
13928;DHT22;7036;50.834;4.718;2024-03-25T14:50:36;19.70;56.00
13928;DHT22;7036;50.834;4.718;2024-03-25T14:53:04;19.70;56.30
13928;DHT22;7036;50.834;4.718;2024-03-25T14:55:32;19.70;56.00
13928;DHT22;7036;50.834;4.718;2024-03-25T14:57:59;19.70;56.10
13928;DHT22;7036;50.834;4.718;2024-03-25T15:00:27;19.70;56.30
13928;DHT22;7036;50.834;4.718;2024-03-25T15:02:55;19.70;56.30
13928;DHT22;7036;50.834;4.718;2024-03-25T15:05:23;19.70;55.70
13928;DHT22;7036;50.834;4.718;2024-03-25T15:07:50;19.80;55.60
13928;DHT22;7036;50.834;4.718;2024-03-25T15:10:18;19.70;56.20
13928;DHT22;7036;50.834;4.718;2024-03-25T15:12:46;19.70;56.30
13928;DHT22;7036;50.834;4.718;2024-03-25T15:15:14;19.80;56.40
13928;DHT22;7036;50.834;4.718;2024-03-25T15:17:41;19.70;55.60
13928;DHT22;7036;50.834;4.718;2024-03-25T15:20:08;19.70;55.70
13928;DHT22;7036;50.834;4.718;2024-03-25T15:22:35;19.70;55.60
13928;DHT22;7036;50.834;4.718;2024-03-25T15:25:04;19.80;56.40
13928;DHT22;7036;50.834;4.718;2024-03-25T15:27:31;19.70;56.30
13928;DHT22;7036;50.834;4.718;2024-03-25T15:29:59;19.70;56.30
13928;DHT22;7036;50.834;4.718;2024-03-25T15:32:27;19.70;56.40
13928;DHT22;7036;50.834;4.718;2024-03-25T15:34:55;19.70;56.40
13928;DHT22;7036;50.834;4.718;2024-03-25T15:37:23;19.70;56.30
13928;DHT22;7036;50.834;4.718;2024-03-25T15:39:51;19.70;56.30
13928;DHT22;7036;50.834;4.718;2024-03-25T15:42:19;19.70;56.30
13928;DHT22;7036;50.834;4.718;2024-03-25T15:44:50;19.70;56.30
13928;DHT22;7036;50.834;4.718;2024-03-25T15:47:15;19.70;56.30
13928;DHT22;7036;50.834;4.718;2024-03-25T15:49:51;19.70;55.70